Bushnell, Utah
Current Conditions -  °F | °C
As of 11:35 AM on Monday 26 Jan 2015 (Local Time) from KBMC Reporting Station
Clear Clear  
Wind Chill: 39°   Ceiling: Unl
Heat Index: 39°   Visibility: 7mi
Dew Point: 32°   Wind: 0mph
Humidity: 77%   Direction: NA
Pressure: 30.38"   Gusts: NA
Location:  41.4833°N, 112.095°W
Report Text: KBMC 261835Z AUTO 00000KT 7SM CLR 04/00 A3038 RMK AO1 T00390002
Loading
Personal Weather Stations






























Interactive Weather Map New forecast layout! Learn more

10-Day Weather Forecast

Advertisements
Track Severe Weather on mobile